createdAt,value
2024-05-09T00:00:54.117Z,9.67
2024-05-09T00:03:47.036Z,9.54
2024-05-09T00:06:18.744Z,9.43
2024-05-09T00:08:50.264Z,9.33
2024-05-09T00:11:20.956Z,9.22
2024-05-09T00:13:52.674Z,9.13
2024-05-09T00:16:22.872Z,9.02
2024-05-09T00:18:55.237Z,8.95
2024-05-09T00:21:25.880Z,8.88
2024-05-09T00:23:57.529Z,8.83
2024-05-09T00:26:28.290Z,8.77
2024-05-09T00:28:59.853Z,8.72
2024-05-09T00:31:30.235Z,8.67
2024-05-09T00:34:01.922Z,8.64
2024-05-09T00:36:32.336Z,8.62
2024-05-09T00:39:04.312Z,8.58
2024-05-09T00:41:34.703Z,8.52
2024-05-09T00:44:06.569Z,8.46
2024-05-09T00:46:36.793Z,8.36
2024-05-09T00:49:09.056Z,8.27
2024-05-09T00:51:39.905Z,8.20
2024-05-09T00:54:11.355Z,8.15
2024-05-09T00:56:41.369Z,8.10
2024-05-09T00:59:13.484Z,8.06
2024-05-09T01:01:43.902Z,8.01
2024-05-09T01:04:15.952Z,7.97
2024-05-09T01:06:46.153Z,7.92
2024-05-09T01:09:17.599Z,7.85
2024-05-09T01:11:47.990Z,7.78
2024-05-09T01:14:20.047Z,7.74
2024-05-09T01:16:50.141Z,7.70
2024-05-09T01:19:28.402Z,7.68
2024-05-09T01:22:00.209Z,7.65
2024-05-09T01:24:30.925Z,7.61
2024-05-09T01:27:02.567Z,7.58
2024-05-09T01:29:32.971Z,7.55
2024-05-09T01:32:05.089Z,7.50
2024-05-09T01:34:35.277Z,7.44
2024-05-09T01:37:06.846Z,7.37
2024-05-09T01:39:37.165Z,7.31
2024-05-09T01:42:08.511Z,7.23
2024-05-09T01:44:38.826Z,7.16
2024-05-09T01:47:10.493Z,7.12
2024-05-09T01:49:41.171Z,7.08
2024-05-09T01:52:12.578Z,7.04
2024-05-09T01:54:42.987Z,7.02
2024-05-09T01:57:14.440Z,7.02
2024-05-09T01:59:44.868Z,7.02
2024-05-09T02:02:16.853Z,7.02
2024-05-09T02:04:48.126Z,6.97
2024-05-09T02:07:19.745Z,6.94
2024-05-09T02:09:53.509Z,6.89
2024-05-09T02:12:25.194Z,6.85
2024-05-09T02:14:56.129Z,6.81
2024-05-09T02:17:27.702Z,6.78
2024-05-09T02:19:58.246Z,6.75
2024-05-09T02:22:29.873Z,6.71
2024-05-09T02:25:00.118Z,6.69
2024-05-09T02:27:31.646Z,6.64
2024-05-09T02:30:01.862Z,6.60
2024-05-09T02:32:34.024Z,6.57
2024-05-09T02:35:04.360Z,6.53
2024-05-09T02:37:36.022Z,6.50
2024-05-09T02:40:09.128Z,6.45
2024-05-09T02:42:43.217Z,6.41
2024-05-09T02:45:13.238Z,6.36
2024-05-09T02:47:45.080Z,6.32
2024-05-09T02:50:23.002Z,6.26
2024-05-09T02:52:59.630Z,6.17
2024-05-09T02:55:29.992Z,6.11
2024-05-09T02:58:01.595Z,6.07
2024-05-09T03:00:38.362Z,6.01
2024-05-09T03:03:14.881Z,5.94
2024-05-09T03:05:49.955Z,5.91
2024-05-09T03:08:20.215Z,5.84
2024-05-09T03:10:52.083Z,5.79
2024-05-09T03:13:22.328Z,5.77
2024-05-09T03:15:53.989Z,5.74
2024-05-09T03:18:24.082Z,5.68
2024-05-09T03:20:56.410Z,5.65
2024-05-09T03:23:26.806Z,5.62
2024-05-09T03:25:58.393Z,5.59
2024-05-09T03:28:28.802Z,5.57
2024-05-09T03:31:00.435Z,5.54
2024-05-09T03:33:31.046Z,5.49
2024-05-09T03:36:03.139Z,5.47
2024-05-09T03:38:42.558Z,5.48
2024-05-09T03:41:14.191Z,5.48
2024-05-09T03:43:44.812Z,5.50
2024-05-09T03:46:16.421Z,5.51
2024-05-09T03:48:46.861Z,5.50
2024-05-09T03:51:18.822Z,5.51
2024-05-09T03:53:49.166Z,5.52
2024-05-09T03:56:21.009Z,5.55
2024-05-09T03:58:51.330Z,5.60
2024-05-09T04:01:25.319Z,5.64
2024-05-09T04:03:55.943Z,5.68
2024-05-09T04:06:27.512Z,5.74
2024-05-09T04:08:57.832Z,5.80
2024-05-09T04:11:29.254Z,5.89
2024-05-09T04:13:59.726Z,5.98
2024-05-09T04:16:31.261Z,6.08
2024-05-09T04:19:01.648Z,6.15
2024-05-09T04:21:33.136Z,6.23
2024-05-09T04:24:03.572Z,6.30
2024-05-09T04:26:34.968Z,6.40
2024-05-09T04:29:05.579Z,6.55
2024-05-09T04:31:36.989Z,6.70
2024-05-09T04:34:07.655Z,6.87
2024-05-09T04:36:41.627Z,7.07
2024-05-09T04:39:15.445Z,7.27
2024-05-09T04:41:45.663Z,7.44
2024-05-09T04:44:17.584Z,7.60
2024-05-09T04:46:48.115Z,7.79
2024-05-09T04:49:20.018Z,7.96
2024-05-09T04:51:50.444Z,8.19
2024-05-09T04:54:30.028Z,8.46
2024-05-09T04:57:08.228Z,8.70
2024-05-09T04:59:38.723Z,8.86
2024-05-09T05:02:10.262Z,9.01
2024-05-09T05:04:40.738Z,9.13
2024-05-09T05:07:12.358Z,9.41
2024-05-09T05:09:42.520Z,9.79
2024-05-09T05:12:32.795Z,10.22
2024-05-09T05:15:04.730Z,10.69
2024-05-09T05:17:35.220Z,11.17
2024-05-09T05:20:08.641Z,11.64
2024-05-09T05:22:43.752Z,12.08
2024-05-09T05:25:14.211Z,12.57
2024-05-09T05:27:45.578Z,12.91
2024-05-09T05:30:21.270Z,13.19
2024-05-09T05:32:57.249Z,13.50
2024-05-09T05:35:27.542Z,13.88
2024-05-09T05:37:59.204Z,14.28
2024-05-09T05:40:36.311Z,14.64
2024-05-09T05:43:15.665Z,14.95
2024-05-09T05:45:48.144Z,15.23
2024-05-09T05:48:18.740Z,15.64
2024-05-09T05:50:50.729Z,16.03
2024-05-09T05:53:21.313Z,16.39
2024-05-09T05:55:52.773Z,16.75
2024-05-09T05:58:23.248Z,17.07
2024-05-09T06:00:54.844Z,17.33
2024-05-09T06:03:25.462Z,17.65
2024-05-09T06:05:57.128Z,17.99
2024-05-09T06:08:30.279Z,18.37
2024-05-09T06:11:02.948Z,18.68
2024-05-09T06:13:33.385Z,18.88
2024-05-09T06:16:05.043Z,19.24
2024-05-09T06:18:35.618Z,19.60
2024-05-09T06:21:10.337Z,19.89
2024-05-09T06:23:49.264Z,20.25
2024-05-09T06:26:20.799Z,20.55
2024-05-09T06:28:51.149Z,20.81
2024-05-09T06:31:24.397Z,21.09
2024-05-09T06:33:54.898Z,21.48
2024-05-09T06:36:27.200Z,21.83
2024-05-09T06:38:57.728Z,22.17
2024-05-09T06:41:29.374Z,22.32
2024-05-09T06:43:59.767Z,22.41
2024-05-09T06:46:31.368Z,22.65
2024-05-09T06:49:08.064Z,23.01
2024-05-09T06:51:40.320Z,23.37
2024-05-09T06:54:10.532Z,23.67
2024-05-09T06:56:42.362Z,23.96
2024-05-09T06:59:12.743Z,24.07
2024-05-09T07:01:44.829Z,24.07
2024-05-09T07:04:15.458Z,24.24
2024-05-09T07:06:47.275Z,24.36
2024-05-09T07:09:17.497Z,24.59
2024-05-09T07:11:49.526Z,24.93
2024-05-09T07:14:19.810Z,25.21
2024-05-09T07:16:51.602Z,25.46
2024-05-09T07:19:22.069Z,25.78
2024-05-09T07:21:53.611Z,25.95
2024-05-09T07:24:23.836Z,26.13
2024-05-09T07:26:56.651Z,26.57
2024-05-09T07:29:27.077Z,26.88
2024-05-09T07:31:58.729Z,27.22
2024-05-09T07:34:29.206Z,27.41
2024-05-09T07:37:02.158Z,27.60
2024-05-09T07:39:32.400Z,27.65
2024-05-09T07:42:04.306Z,27.81
2024-05-09T07:44:34.771Z,27.88
2024-05-09T07:48:14.465Z,27.87
2024-05-09T07:51:47.866Z,27.87
2024-05-09T07:53:35.355Z,28.20
2024-05-09T07:55:43.044Z,28.53
2024-05-09T07:58:13.518Z,28.68
2024-05-09T08:00:45.137Z,28.73
2024-05-09T08:03:16.043Z,28.83
2024-05-09T08:05:47.799Z,29.01
2024-05-09T08:08:18.093Z,29.14
2024-05-09T08:10:50.361Z,29.53
2024-05-09T08:13:20.841Z,29.97
2024-05-09T08:15:53.519Z,30.59
2024-05-09T08:18:24.054Z,31.07
2024-05-09T08:20:56.677Z,31.36
2024-05-09T08:23:26.805Z,31.80
2024-05-09T08:25:58.246Z,32.29
2024-05-09T08:28:28.579Z,32.70
2024-05-09T08:31:01.732Z,32.96
2024-05-09T08:33:35.776Z,33.10
2024-05-09T08:36:06.916Z,33.29
2024-05-09T08:38:38.374Z,33.62
2024-05-09T08:41:08.797Z,33.82
2024-05-09T08:43:42.116Z,33.88
2024-05-09T08:46:13.585Z,34.04
2024-05-09T08:48:48.434Z,34.31
2024-05-09T08:51:21.458Z,34.53
2024-05-09T08:53:51.888Z,34.64
2024-05-09T08:56:23.579Z,34.74
2024-05-09T08:58:57.146Z,34.84
2024-05-09T09:01:30.514Z,34.95
2024-05-09T09:04:04.340Z,35.37
2024-05-09T09:06:36.420Z,35.78
2024-05-09T09:09:06.834Z,35.92
2024-05-09T09:11:38.506Z,35.87
2024-05-09T09:14:10.319Z,35.90
2024-05-09T09:16:51.949Z,35.95
2024-05-09T09:19:25.095Z,35.98
2024-05-09T09:21:57.131Z,35.71
2024-05-09T09:24:28.170Z,35.62
2024-05-09T09:27:02.781Z,35.89
2024-05-09T09:29:33.601Z,36.14
2024-05-09T09:32:05.601Z,36.31
2024-05-09T09:34:41.744Z,36.51
2024-05-09T09:37:12.536Z,36.56
2024-05-09T09:39:49.033Z,36.68
2024-05-09T09:42:24.369Z,36.92
2024-05-09T09:45:02.215Z,37.08
2024-05-09T09:47:39.923Z,37.31
2024-05-09T09:50:14.449Z,37.65
2024-05-09T09:52:52.398Z,37.88
2024-05-09T09:55:25.005Z,38.30
2024-05-09T09:57:56.004Z,38.63
2024-05-09T10:00:32.635Z,38.16
2024-05-09T10:03:05.704Z,37.98
2024-05-09T10:05:36.156Z,38.11
2024-05-09T10:08:10.813Z,37.49
2024-05-09T10:10:41.023Z,36.14
2024-05-09T10:13:13.087Z,34.95
2024-05-09T10:15:54.582Z,34.80
2024-05-09T10:18:29.571Z,34.05
2024-05-09T10:21:02.922Z,33.27
2024-05-09T10:23:34.700Z,33.92
2024-05-09T10:26:06.571Z,34.58
2024-05-09T10:28:37.504Z,34.84
2024-05-09T10:31:09.996Z,34.33
2024-05-09T10:33:45.360Z,34.77
2024-05-09T10:36:20.139Z,35.33
2024-05-09T10:38:53.250Z,36.18
2024-05-09T10:41:23.887Z,37.15
2024-05-09T10:43:55.500Z,37.78
2024-05-09T10:46:25.751Z,37.99
2024-05-09T10:48:57.512Z,38.06
2024-05-09T10:51:28.578Z,38.24
2024-05-09T10:54:00.167Z,38.44
2024-05-09T10:56:30.640Z,38.75
2024-05-09T10:59:05.027Z,38.83
2024-05-09T11:01:35.522Z,38.85
2024-05-09T11:04:08.283Z,38.86
2024-05-09T11:06:38.947Z,39.26
2024-05-09T11:09:10.419Z,39.55
2024-05-09T11:11:40.776Z,39.59
2024-05-09T11:14:13.055Z,39.59
2024-05-09T11:16:43.527Z,39.45
2024-05-09T11:19:15.110Z,39.57
2024-05-09T11:21:50.598Z,39.72
2024-05-09T11:24:22.801Z,39.55
2024-05-09T11:26:53.133Z,39.38
2024-05-09T11:29:45.817Z,39.17
2024-05-09T11:32:27.413Z,39.22
2024-05-09T11:34:59.132Z,39.46
2024-05-09T11:37:31.827Z,39.28
2024-05-09T11:40:09.243Z,38.99
2024-05-09T11:42:47.697Z,39.02
2024-05-09T11:45:20.281Z,39.17
2024-05-09T11:47:50.561Z,39.06
2024-05-09T11:50:27.331Z,38.85
2024-05-09T11:53:05.405Z,38.46
2024-05-09T11:55:36.590Z,38.11
2024-05-09T11:58:08.836Z,37.72
2024-05-09T12:00:39.181Z,36.96
2024-05-09T12:03:12.394Z,36.37
2024-05-09T12:05:42.929Z,36.28
2024-05-09T12:08:14.606Z,36.29
2024-05-09T12:10:45.073Z,36.16
2024-05-09T12:13:17.016Z,36.24
2024-05-09T12:15:47.815Z,35.64
2024-05-09T12:18:19.662Z,34.55
2024-05-09T12:20:50.124Z,34.06
2024-05-09T12:23:22.083Z,33.82
2024-05-09T12:25:52.200Z,34.11
2024-05-09T12:28:24.086Z,34.17
2024-05-09T12:30:54.606Z,33.89
2024-05-09T12:33:26.312Z,33.60
2024-05-09T12:35:56.779Z,32.86
2024-05-09T12:38:28.021Z,32.11
2024-05-09T12:40:58.374Z,32.56
2024-05-09T12:43:29.811Z,33.12
2024-05-09T12:46:00.491Z,33.44
2024-05-09T12:48:32.163Z,33.52
2024-05-09T12:51:02.625Z,33.27
2024-05-09T12:53:33.958Z,32.59
2024-05-09T12:56:05.961Z,31.97
2024-05-09T12:58:38.188Z,31.44
2024-05-09T13:01:08.801Z,31.02
2024-05-09T13:03:40.492Z,30.46
2024-05-09T13:06:11.205Z,29.79
2024-05-09T13:08:42.463Z,28.99
2024-05-09T13:11:13.167Z,28.17
2024-05-09T13:13:44.644Z,27.63
2024-05-09T13:16:15.145Z,27.20
2024-05-09T13:18:46.556Z,26.78
2024-05-09T13:21:17.390Z,26.53
2024-05-09T13:23:48.710Z,26.68
2024-05-09T13:26:19.228Z,27.23
2024-05-09T13:28:50.581Z,27.86
2024-05-09T13:31:21.145Z,28.51
2024-05-09T13:33:52.959Z,28.82
2024-05-09T13:36:23.700Z,28.62
2024-05-09T13:38:56.548Z,28.23
2024-05-09T13:41:27.007Z,28.10
2024-05-09T13:43:58.876Z,28.33
2024-05-09T13:46:29.092Z,28.62
2024-05-09T13:49:01.243Z,28.63
2024-05-09T13:51:31.947Z,28.58
2024-05-09T13:54:03.550Z,28.60
2024-05-09T13:56:33.768Z,28.64
2024-05-09T13:59:05.237Z,28.63
2024-05-09T14:01:35.828Z,28.19
2024-05-09T14:04:09.964Z,27.75
2024-05-09T14:06:40.459Z,27.52
2024-05-09T14:09:12.068Z,27.31
2024-05-09T14:11:42.712Z,26.80
2024-05-09T14:14:14.746Z,26.33
2024-05-09T14:16:45.010Z,25.82
2024-05-09T14:19:16.676Z,25.42
2024-05-09T14:21:47.298Z,25.03
2024-05-09T14:24:19.011Z,24.68
2024-05-09T14:26:49.228Z,24.38
2024-05-09T14:29:20.782Z,24.12
2024-05-09T14:31:51.422Z,24.18
2024-05-09T14:34:23.516Z,24.39
2024-05-09T14:36:54.203Z,24.72
2024-05-09T14:39:25.865Z,25.17
2024-05-09T14:41:56.205Z,25.54
2024-05-09T14:44:27.753Z,26.08
2024-05-09T14:46:58.226Z,26.57
2024-05-09T14:49:30.981Z,26.75
2024-05-09T14:52:01.157Z,26.76
2024-05-09T14:54:32.984Z,26.77
2024-05-09T14:57:03.882Z,26.86
2024-05-09T14:59:35.441Z,26.84
2024-05-09T15:02:05.660Z,26.73
2024-05-09T15:04:37.518Z,26.52
2024-05-09T15:07:08.335Z,26.26
2024-05-09T15:09:42.053Z,26.00
2024-05-09T15:12:12.379Z,25.85
2024-05-09T15:14:44.034Z,25.57
2024-05-09T15:17:14.266Z,25.14
2024-05-09T15:19:46.155Z,24.88
2024-05-09T15:22:17.549Z,24.61
2024-05-09T15:24:49.574Z,24.28
2024-05-09T15:27:19.858Z,24.01
2024-05-09T15:29:51.491Z,23.81
2024-05-09T15:32:21.844Z,23.67
2024-05-09T15:34:53.783Z,23.62
2024-05-09T15:37:24.232Z,23.54
2024-05-09T15:39:55.912Z,23.26
2024-05-09T15:42:26.515Z,22.96
2024-05-09T15:44:58.049Z,22.74
2024-05-09T15:47:28.953Z,22.54
2024-05-09T15:50:00.780Z,22.38
2024-05-09T15:52:31.285Z,22.28
2024-05-09T15:55:03.212Z,22.17
2024-05-09T15:57:33.720Z,22.07
2024-05-09T16:00:09.777Z,22.02
2024-05-09T16:02:46.778Z,21.99
2024-05-09T16:05:17.699Z,21.96
2024-05-09T16:07:49.518Z,21.86
2024-05-09T16:10:25.793Z,21.77
2024-05-09T16:13:02.672Z,21.71
2024-05-09T16:15:33.782Z,21.63
2024-05-09T16:18:05.509Z,21.60
2024-05-09T16:20:40.172Z,21.56
2024-05-09T16:23:14.076Z,21.51
2024-05-09T16:25:46.244Z,21.46
2024-05-09T16:28:18.679Z,21.36
2024-05-09T16:30:50.126Z,21.22
2024-05-09T16:33:23.953Z,21.07
2024-05-09T16:35:54.516Z,20.92
2024-05-09T16:38:25.957Z,20.84
2024-05-09T16:40:56.315Z,20.80
2024-05-09T16:43:27.768Z,20.73
2024-05-09T16:45:58.407Z,20.59
2024-05-09T16:48:30.477Z,20.50
2024-05-09T16:51:00.855Z,20.36
2024-05-09T16:53:32.308Z,20.18
2024-05-09T16:56:02.958Z,20.06
2024-05-09T16:58:34.637Z,20.00
2024-05-09T17:01:05.176Z,19.94
2024-05-09T17:03:37.084Z,19.90
2024-05-09T17:06:07.740Z,19.80
2024-05-09T17:08:40.534Z,19.70
2024-05-09T17:11:13.308Z,19.62
2024-05-09T17:13:48.181Z,19.50
2024-05-09T17:16:21.063Z,19.34
2024-05-09T17:18:51.666Z,19.17
2024-05-09T17:21:23.377Z,19.03
2024-05-09T17:23:55.855Z,18.95
2024-05-09T17:26:27.619Z,18.88
2024-05-09T17:28:58.251Z,18.83
2024-05-09T17:31:29.888Z,18.72
2024-05-09T17:34:00.457Z,18.59
2024-05-09T17:36:32.401Z,18.47
2024-05-09T17:39:02.722Z,18.35
2024-05-09T17:41:34.268Z,18.24
2024-05-09T17:44:06.380Z,18.13
2024-05-09T17:46:37.827Z,18.02
2024-05-09T17:49:08.276Z,17.88
2024-05-09T17:51:50.252Z,17.74
2024-05-09T17:54:21.965Z,17.59
2024-05-09T17:56:52.092Z,17.46
2024-05-09T17:59:23.743Z,17.33
2024-05-09T18:01:53.936Z,17.23
2024-05-09T18:04:25.795Z,17.16
2024-05-09T18:06:56.925Z,17.05
2024-05-09T18:09:28.425Z,16.92
2024-05-09T18:11:58.787Z,16.79
2024-05-09T18:14:30.296Z,16.63
2024-05-09T18:17:00.923Z,16.48
2024-05-09T18:19:32.689Z,16.36
2024-05-09T18:22:03.266Z,16.25
2024-05-09T18:24:35.411Z,16.15
2024-05-09T18:27:05.920Z,16.03
2024-05-09T18:29:37.370Z,15.89
2024-05-09T18:32:08.072Z,15.76
2024-05-09T18:34:39.845Z,15.62
2024-05-09T18:37:10.625Z,15.49
2024-05-09T18:39:42.461Z,15.37
2024-05-09T18:42:12.571Z,15.26
2024-05-09T18:44:44.227Z,15.15
2024-05-09T18:47:16.754Z,15.05
2024-05-09T18:49:51.393Z,14.95
2024-05-09T18:52:21.685Z,14.84
2024-05-09T18:54:53.427Z,14.76
2024-05-09T18:57:24.890Z,14.71
2024-05-09T18:59:56.830Z,14.67
2024-05-09T19:02:27.029Z,14.62
2024-05-09T19:04:58.925Z,14.55
2024-05-09T19:07:29.435Z,14.42
2024-05-09T19:10:00.994Z,14.25
2024-05-09T19:12:31.224Z,14.08
2024-05-09T19:15:02.706Z,13.91
2024-05-09T19:17:33.326Z,13.77
2024-05-09T19:20:06.031Z,13.65
2024-05-09T19:22:36.779Z,13.56
2024-05-09T19:25:08.901Z,13.52
2024-05-09T19:27:40.148Z,13.47
2024-05-09T19:30:21.044Z,13.43
2024-05-09T19:32:58.687Z,13.36
2024-05-09T19:35:29.006Z,13.29
2024-05-09T19:38:01.323Z,13.21
2024-05-09T19:40:33.733Z,13.08
2024-05-09T19:43:07.417Z,12.95
2024-05-09T19:45:38.080Z,12.83
2024-05-09T19:48:10.158Z,12.70
2024-05-09T19:50:43.987Z,12.61
2024-05-09T19:53:17.474Z,12.55
2024-05-09T19:55:48.288Z,12.49
2024-05-09T19:58:20.946Z,12.41
2024-05-09T20:00:51.310Z,12.31
2024-05-09T20:03:22.900Z,12.20
2024-05-09T20:05:53.489Z,12.11
2024-05-09T20:08:25.032Z,12.02
2024-05-09T20:10:56.060Z,11.94
2024-05-09T20:13:28.227Z,11.84
2024-05-09T20:15:58.591Z,11.78
2024-05-09T20:18:30.156Z,11.69
2024-05-09T20:21:00.949Z,11.60
2024-05-09T20:23:32.808Z,11.50
2024-05-09T20:26:03.033Z,11.40
2024-05-09T20:28:35.687Z,11.30
2024-05-09T20:31:06.493Z,11.21
2024-05-09T20:33:38.215Z,11.13
2024-05-09T20:36:08.772Z,11.07
2024-05-09T20:38:40.396Z,11.02
2024-05-09T20:41:10.925Z,10.96
2024-05-09T20:43:42.471Z,10.89
2024-05-09T20:46:14.606Z,10.80
2024-05-09T20:48:46.874Z,10.72
2024-05-09T20:51:17.335Z,10.65
2024-05-09T20:53:48.901Z,10.59
2024-05-09T20:56:22.287Z,10.52
2024-05-09T20:58:53.941Z,10.44
2024-05-09T21:01:24.465Z,10.37
2024-05-09T21:03:56.243Z,10.33
2024-05-09T21:06:27.016Z,10.30
2024-05-09T21:08:58.836Z,10.29
2024-05-09T21:11:29.100Z,10.25
2024-05-09T21:14:00.804Z,10.21
2024-05-09T21:16:34.274Z,10.18
2024-05-09T21:19:05.973Z,10.12
2024-05-09T21:21:42.131Z,10.05
2024-05-09T21:24:13.638Z,9.99
2024-05-09T21:26:43.891Z,9.92
2024-05-09T21:29:15.647Z,9.87
2024-05-09T21:31:45.663Z,9.82
2024-05-09T21:34:17.471Z,9.79
2024-05-09T21:36:47.763Z,9.76
2024-05-09T21:39:19.296Z,9.69
2024-05-09T21:41:49.644Z,9.59
2024-05-09T21:44:21.280Z,9.49
2024-05-09T21:46:51.629Z,9.37
2024-05-09T21:49:23.097Z,9.25
2024-05-09T21:51:53.769Z,9.14
2024-05-09T21:54:25.445Z,9.10
2024-05-09T21:56:55.668Z,9.11
2024-05-09T21:59:27.239Z,9.12
2024-05-09T22:01:57.640Z,9.11
2024-05-09T22:04:29.522Z,9.09
2024-05-09T22:07:00.397Z,9.05
2024-05-09T22:09:32.279Z,9.01
2024-05-09T22:12:02.893Z,8.95
2024-05-09T22:14:34.598Z,8.89
2024-05-09T22:17:05.137Z,8.84
2024-05-09T22:19:36.911Z,8.80
2024-05-09T22:22:07.250Z,8.75
2024-05-09T22:24:38.916Z,8.69
2024-05-09T22:27:11.847Z,8.63
2024-05-09T22:29:43.499Z,8.57
2024-05-09T22:32:13.988Z,8.53
2024-05-09T22:34:45.559Z,8.53
2024-05-09T22:37:16.348Z,8.55
2024-05-09T22:39:48.116Z,8.54
2024-05-09T22:42:18.300Z,8.47
2024-05-09T22:44:49.775Z,8.40
2024-05-09T22:47:20.371Z,8.36
2024-05-09T22:49:52.061Z,8.33
2024-05-09T22:52:22.395Z,8.32
2024-05-09T22:54:54.282Z,8.29
2024-05-09T22:57:24.646Z,8.22
2024-05-09T22:59:55.893Z,8.13
2024-05-09T23:02:26.328Z,8.04
2024-05-09T23:04:58.087Z,7.93
2024-05-09T23:07:28.622Z,7.86
2024-05-09T23:10:00.017Z,7.78
2024-05-09T23:12:30.401Z,7.70
2024-05-09T23:15:01.853Z,7.58
2024-05-09T23:17:32.126Z,7.49
2024-05-09T23:20:05.267Z,7.42
2024-05-09T23:22:39.378Z,7.34
2024-05-09T23:25:09.523Z,7.27
2024-05-09T23:27:41.780Z,7.22
2024-05-09T23:30:15.212Z,7.14
2024-05-09T23:32:47.183Z,7.03
2024-05-09T23:35:17.422Z,6.97
2024-05-09T23:37:49.183Z,6.99
2024-05-09T23:40:23.218Z,7.04
2024-05-09T23:42:55.772Z,7.09
2024-05-09T23:45:26.117Z,7.12
2024-05-09T23:47:57.855Z,7.10
2024-05-09T23:50:34.446Z,7.01
2024-05-09T23:53:10.440Z,6.89
2024-05-09T23:55:41.312Z,6.76
2024-05-09T23:58:13.121Z,6.65
